createdAt,value
2019-03-22T00:00:12.116Z,99.90
2019-03-22T00:02:40.674Z,99.90
2019-03-22T00:05:09.395Z,99.90
2019-03-22T00:07:37.859Z,99.90
2019-03-22T00:10:06.941Z,99.90
2019-03-22T00:12:35.397Z,99.90
2019-03-22T00:15:06.650Z,99.90
2019-03-22T00:17:35.179Z,99.90
2019-03-22T00:20:06.281Z,99.90
2019-03-22T00:22:34.878Z,99.90
2019-03-22T00:25:04.775Z,99.90
2019-03-22T00:27:33.231Z,99.90
2019-03-22T00:30:01.718Z,99.90
2019-03-22T00:32:30.207Z,99.90
2019-03-22T00:34:58.647Z,99.90
2019-03-22T00:37:27.179Z,99.90
2019-03-22T00:39:55.634Z,99.90
2019-03-22T00:42:24.100Z,99.90
2019-03-22T00:44:52.551Z,99.90
2019-03-22T00:47:20.990Z,99.90
2019-03-22T00:49:49.448Z,99.90
2019-03-22T00:52:17.908Z,99.90
2019-03-22T00:54:46.346Z,99.90
2019-03-22T00:57:14.803Z,99.90
2019-03-22T00:59:43.323Z,99.90
2019-03-22T01:02:11.791Z,99.90
2019-03-22T01:04:40.233Z,99.90
2019-03-22T01:07:08.694Z,99.90
2019-03-22T01:09:37.149Z,99.90
2019-03-22T01:12:05.769Z,99.90
2019-03-22T01:14:34.214Z,99.90
2019-03-22T01:17:02.659Z,99.90
2019-03-22T01:19:31.139Z,99.90
2019-03-22T01:21:59.586Z,99.90
2019-03-22T01:24:28.345Z,99.90
2019-03-22T01:26:56.788Z,99.90
2019-03-22T01:29:25.243Z,99.90
2019-03-22T01:31:53.767Z,99.90
2019-03-22T01:34:22.220Z,99.90
2019-03-22T01:36:50.675Z,99.90
2019-03-22T01:39:19.127Z,99.90
2019-03-22T01:41:47.659Z,99.90
2019-03-22T01:44:16.170Z,99.90
2019-03-22T01:46:44.700Z,99.90
2019-03-22T01:49:13.154Z,99.90
2019-03-22T01:51:41.684Z,99.90
2019-03-22T01:54:10.134Z,99.90
2019-03-22T01:56:38.596Z,99.90
2019-03-22T01:59:07.075Z,99.90
2019-03-22T02:01:35.527Z,99.90
2019-03-22T02:04:04.063Z,99.90
2019-03-22T02:06:32.588Z,99.90
2019-03-22T02:09:01.073Z,99.90
2019-03-22T02:11:29.587Z,99.90
2019-03-22T02:13:58.046Z,99.90
2019-03-22T02:16:26.533Z,99.90
2019-03-22T02:18:54.975Z,99.90
2019-03-22T02:21:23.435Z,99.90
2019-03-22T02:23:52.268Z,99.90
2019-03-22T02:26:20.939Z,99.90
2019-03-22T02:28:49.482Z,99.90
2019-03-22T02:31:17.931Z,99.90
2019-03-22T02:33:46.401Z,99.90
2019-03-22T02:36:14.859Z,99.90
2019-03-22T02:38:43.407Z,99.90
2019-03-22T02:41:11.947Z,99.90
2019-03-22T02:43:40.482Z,99.90
2019-03-22T02:46:09.088Z,99.90
2019-03-22T02:48:37.572Z,99.90
2019-03-22T02:51:06.110Z,99.90
2019-03-22T02:53:34.644Z,99.90
2019-03-22T02:56:03.295Z,99.90
2019-03-22T02:58:31.973Z,99.90
2019-03-22T03:01:00.963Z,99.90
2019-03-22T03:03:29.423Z,99.90
2019-03-22T03:05:57.872Z,99.90
2019-03-22T03:08:26.336Z,99.90
2019-03-22T03:10:54.781Z,99.90
2019-03-22T03:13:23.242Z,99.90
2019-03-22T03:15:51.775Z,99.90
2019-03-22T03:18:20.227Z,99.90
2019-03-22T03:20:48.763Z,99.90
2019-03-22T03:23:17.219Z,99.90
2019-03-22T03:25:45.748Z,99.90
2019-03-22T03:28:14.193Z,99.90
2019-03-22T03:30:42.667Z,99.90
2019-03-22T03:33:11.281Z,99.90
2019-03-22T03:35:39.808Z,99.90
2019-03-22T03:38:08.345Z,99.90
2019-03-22T03:40:36.867Z,99.90
2019-03-22T03:43:05.332Z,99.90
2019-03-22T03:45:35.596Z,99.90
2019-03-22T03:48:07.446Z,99.90
2019-03-22T03:50:36.310Z,99.90
2019-03-22T03:53:05.770Z,99.90
2019-03-22T03:55:34.457Z,99.90
2019-03-22T03:58:03.121Z,99.90
2019-03-22T04:00:31.763Z,99.90
2019-03-22T04:03:00.339Z,99.90
2019-03-22T04:05:29.038Z,99.90
2019-03-22T04:07:57.536Z,99.90
2019-03-22T04:10:26.053Z,99.90
2019-03-22T04:12:54.592Z,99.90
2019-03-22T04:15:23.182Z,99.90
2019-03-22T04:17:51.652Z,99.90
2019-03-22T04:20:20.175Z,99.90
2019-03-22T04:22:48.649Z,99.90
2019-03-22T04:25:17.250Z,99.90
2019-03-22T04:27:45.784Z,99.90
2019-03-22T04:30:14.535Z,99.90
2019-03-22T04:32:43.039Z,99.90
2019-03-22T04:35:11.705Z,99.90
2019-03-22T04:37:40.201Z,99.90
2019-03-22T04:40:27.639Z,99.90
2019-03-22T04:42:56.164Z,99.90
2019-03-22T04:45:27.715Z,99.90
2019-03-22T04:48:08.300Z,99.90
2019-03-22T04:50:39.935Z,99.90
2019-03-22T04:53:11.521Z,99.90
2019-03-22T04:55:43.100Z,99.90
2019-03-22T04:58:13.590Z,99.90
2019-03-22T05:00:43.094Z,99.90
2019-03-22T05:03:12.961Z,99.90
2019-03-22T05:05:42.263Z,99.90
2019-03-22T05:08:10.851Z,99.90
2019-03-22T05:10:39.661Z,99.90
2019-03-22T05:13:10.815Z,99.90
2019-03-22T05:15:40.027Z,99.90
2019-03-22T05:18:09.219Z,99.90
2019-03-22T05:20:39.508Z,99.90
2019-03-22T05:23:09.163Z,99.90
2019-03-22T05:25:38.173Z,99.90
2019-03-22T05:28:08.568Z,99.90
2019-03-22T05:31:04.368Z,99.90
2019-03-22T05:33:32.904Z,99.90
2019-03-22T05:36:01.351Z,99.90
2019-03-22T05:38:29.892Z,99.90
2019-03-22T05:40:58.411Z,99.90
2019-03-22T05:43:26.875Z,99.90
2019-03-22T05:45:55.342Z,99.90
2019-03-22T05:48:23.804Z,99.90
2019-03-22T05:50:52.264Z,99.90
2019-03-22T05:53:20.723Z,99.90
2019-03-22T05:55:49.190Z,99.90
2019-03-22T05:58:17.703Z,99.90
2019-03-22T06:00:46.163Z,99.90
2019-03-22T06:03:14.604Z,99.90
2019-03-22T06:05:43.070Z,99.90
2019-03-22T06:08:11.526Z,99.90
2019-03-22T06:10:39.967Z,99.90
2019-03-22T06:13:08.440Z,99.90
2019-03-22T06:15:36.954Z,99.90
2019-03-22T06:18:05.622Z,99.90
2019-03-22T06:20:34.135Z,99.90
2019-03-22T06:23:02.594Z,99.90
2019-03-22T06:25:31.102Z,99.90
2019-03-22T06:27:59.627Z,99.90
2019-03-22T06:30:28.116Z,99.90
2019-03-22T06:32:56.556Z,99.90
2019-03-22T06:35:24.996Z,99.90
2019-03-22T06:37:53.454Z,99.90
2019-03-22T06:40:21.897Z,99.90
2019-03-22T06:42:50.347Z,99.90
2019-03-22T06:45:18.792Z,99.90
2019-03-22T06:47:47.322Z,99.90
2019-03-22T06:50:15.841Z,99.90
2019-03-22T06:52:44.302Z,99.90
2019-03-22T06:55:12.768Z,99.90
2019-03-22T06:57:41.213Z,99.90
2019-03-22T07:00:12.147Z,99.90
2019-03-22T07:02:40.659Z,99.90
2019-03-22T07:05:09.252Z,99.90
2019-03-22T07:07:37.711Z,99.90
2019-03-22T07:10:07.995Z,99.90
2019-03-22T07:12:36.435Z,99.90
2019-03-22T07:15:08.244Z,99.90
2019-03-22T07:17:36.741Z,99.90
2019-03-22T07:20:07.165Z,99.90
2019-03-22T07:22:35.992Z,99.90
2019-03-22T07:25:06.175Z,99.90
2019-03-22T07:27:34.688Z,99.90
2019-03-22T07:30:05.251Z,99.90
2019-03-22T07:32:33.702Z,99.90
2019-03-22T07:35:02.237Z,99.90
2019-03-22T07:37:30.771Z,99.90
2019-03-22T07:39:59.299Z,99.90
2019-03-22T07:42:27.743Z,99.90
2019-03-22T07:44:56.185Z,99.90
2019-03-22T07:47:24.646Z,99.90
2019-03-22T07:49:53.087Z,99.90
2019-03-22T07:52:21.547Z,99.90
2019-03-22T07:54:49.999Z,99.90
2019-03-22T07:57:18.463Z,97.10
2019-03-22T07:59:46.962Z,96.30
2019-03-22T08:02:17.802Z,95.10
2019-03-22T08:04:45.579Z,94.70
2019-03-22T08:07:14.043Z,93.10
2019-03-22T08:09:42.533Z,91.40
2019-03-22T08:12:11.007Z,89.30
2019-03-22T08:14:39.546Z,85.80
2019-03-22T08:17:07.988Z,82.20
2019-03-22T08:19:36.452Z,76.10
2019-03-22T08:22:05.040Z,74.30
2019-03-22T08:24:33.575Z,73.50
2019-03-22T08:27:02.031Z,71.60
2019-03-22T08:29:30.528Z,66.40
2019-03-22T08:31:59.211Z,64.50
2019-03-22T08:34:27.676Z,59.90
2019-03-22T08:36:56.207Z,58.10
2019-03-22T08:39:24.652Z,59.40
2019-03-22T08:41:53.113Z,60.00
2019-03-22T08:44:21.695Z,59.40
2019-03-22T08:46:50.150Z,58.30
2019-03-22T08:49:18.659Z,56.80
2019-03-22T08:52:06.555Z,57.70
2019-03-22T08:54:38.091Z,54.70
2019-03-22T08:57:05.183Z,53.40
2019-03-22T08:59:33.719Z,51.30
2019-03-22T09:02:02.163Z,49.20
2019-03-22T09:04:30.664Z,47.10
2019-03-22T09:06:59.262Z,48.00
2019-03-22T09:09:40.693Z,47.70
2019-03-22T09:11:57.956Z,48.30
2019-03-22T09:14:26.429Z,49.00
2019-03-22T09:16:54.895Z,49.40
2019-03-22T09:19:23.353Z,50.30
2019-03-22T09:21:51.870Z,51.60
2019-03-22T09:24:20.442Z,48.00
2019-03-22T09:26:48.932Z,48.70
2019-03-22T09:29:17.494Z,46.70
2019-03-22T09:31:46.008Z,46.40
2019-03-22T09:34:14.512Z,45.10
2019-03-22T09:36:43.004Z,45.00
2019-03-22T09:39:11.538Z,44.00
2019-03-22T09:41:40.061Z,45.50
2019-03-22T09:44:08.538Z,44.00
2019-03-22T09:46:37.049Z,45.00
2019-03-22T09:49:05.624Z,43.80
2019-03-22T09:51:34.113Z,44.30
2019-03-22T09:54:02.581Z,43.00
2019-03-22T09:56:31.137Z,42.70
2019-03-22T09:58:59.650Z,42.40
2019-03-22T10:01:28.095Z,42.10
2019-03-22T10:03:56.588Z,42.10
2019-03-22T10:06:25.087Z,39.50
2019-03-22T10:08:53.557Z,39.70
2019-03-22T10:11:22.112Z,39.80
2019-03-22T10:13:50.610Z,40.60
2019-03-22T10:16:19.071Z,41.10
2019-03-22T10:18:47.606Z,41.00
2019-03-22T10:21:22.207Z,41.10
2019-03-22T10:23:46.364Z,41.00
2019-03-22T10:26:14.858Z,40.50
2019-03-22T10:28:43.386Z,37.00
2019-03-22T10:31:11.897Z,36.60
2019-03-22T10:33:40.429Z,35.90
2019-03-22T10:36:09.025Z,36.60
2019-03-22T10:38:37.573Z,36.10
2019-03-22T10:41:06.119Z,33.90
2019-03-22T10:43:34.671Z,31.90
2019-03-22T10:46:03.215Z,33.40
2019-03-22T10:48:31.747Z,31.80
2019-03-22T10:51:00.367Z,30.50
2019-03-22T10:53:28.999Z,29.60
2019-03-22T10:55:57.458Z,28.50
2019-03-22T10:58:25.911Z,28.40
2019-03-22T11:00:54.370Z,28.80
2019-03-22T11:03:22.818Z,28.60
2019-03-22T11:05:51.284Z,28.60
2019-03-22T11:08:19.743Z,28.50
2019-03-22T11:10:48.203Z,28.20
2019-03-22T11:13:16.657Z,27.20
2019-03-22T11:15:48.641Z,29.20
2019-03-22T11:18:15.319Z,29.20
2019-03-22T11:20:45.655Z,30.10
2019-03-22T11:23:13.947Z,29.40
2019-03-22T11:25:42.415Z,29.60
2019-03-22T11:28:12.009Z,28.80
2019-03-22T11:30:40.746Z,28.20
2019-03-22T11:33:09.327Z,28.90
2019-03-22T11:35:37.800Z,30.40
2019-03-22T11:38:06.244Z,29.60
2019-03-22T11:40:34.719Z,29.80
2019-03-22T11:43:08.558Z,31.20
2019-03-22T11:45:33.423Z,30.30
2019-03-22T11:48:01.890Z,31.10
2019-03-22T11:50:30.349Z,31.50
2019-03-22T11:52:58.790Z,30.60
2019-03-22T11:55:27.257Z,30.60
2019-03-22T11:57:55.715Z,31.40
2019-03-22T12:00:27.337Z,32.70
2019-03-22T12:02:55.869Z,32.70
2019-03-22T12:05:24.554Z,31.40
2019-03-22T12:07:53.019Z,32.10
2019-03-22T12:10:22.417Z,31.50
2019-03-22T12:12:50.999Z,31.60
2019-03-22T12:15:21.103Z,32.20
2019-03-22T12:17:49.696Z,30.20
2019-03-22T12:20:19.997Z,28.90
2019-03-22T12:22:48.525Z,30.00
2019-03-22T12:25:20.067Z,31.30
2019-03-22T12:27:48.667Z,31.70
2019-03-22T12:30:18.252Z,31.20
2019-03-22T12:32:47.260Z,31.70
2019-03-22T12:35:16.746Z,30.30
2019-03-22T12:37:45.949Z,30.20
2019-03-22T12:40:17.548Z,28.60
2019-03-22T12:42:46.078Z,29.50
2019-03-22T12:45:26.034Z,29.00
2019-03-22T12:47:54.631Z,28.40
2019-03-22T12:50:24.036Z,28.50
2019-03-22T12:52:52.799Z,28.70
2019-03-22T12:55:21.599Z,28.60
2019-03-22T12:57:50.610Z,27.60
2019-03-22T13:00:24.864Z,28.00
2019-03-22T13:02:53.924Z,27.10
2019-03-22T13:05:23.120Z,27.50
2019-03-22T13:07:52.067Z,27.50
2019-03-22T13:10:23.139Z,27.30
2019-03-22T13:12:51.670Z,26.70
2019-03-22T13:15:20.254Z,27.20
2019-03-22T13:17:48.782Z,26.90
2019-03-22T13:20:17.313Z,27.30
2019-03-22T13:22:45.862Z,27.60
2019-03-22T13:25:17.849Z,27.80
2019-03-22T13:27:46.303Z,26.40
2019-03-22T13:30:32.112Z,25.50
2019-03-22T13:33:00.571Z,26.00
2019-03-22T13:35:29.081Z,25.40
2019-03-22T13:37:57.538Z,25.40
2019-03-22T13:40:26.054Z,26.80
2019-03-22T13:42:54.520Z,26.60
2019-03-22T13:45:23.054Z,27.10
2019-03-22T13:47:51.504Z,25.80
2019-03-22T13:50:20.195Z,26.70
2019-03-22T13:52:48.649Z,27.10
2019-03-22T13:55:17.181Z,25.80
2019-03-22T13:57:45.720Z,25.70
2019-03-22T14:00:16.695Z,24.90
2019-03-22T14:02:45.211Z,24.50
2019-03-22T14:05:13.836Z,25.00
2019-03-22T14:07:43.312Z,25.60
2019-03-22T14:10:20.524Z,26.20
2019-03-22T14:12:49.047Z,27.00
2019-03-22T14:15:17.492Z,27.10
2019-03-22T14:17:45.946Z,27.60
2019-03-22T14:20:14.398Z,26.70
2019-03-22T14:22:42.862Z,27.30
2019-03-22T14:25:11.377Z,27.60
2019-03-22T14:27:39.836Z,27.60
2019-03-22T14:30:08.968Z,28.10
2019-03-22T14:32:37.479Z,28.30
2019-03-22T14:35:07.378Z,28.40
2019-03-22T14:37:35.827Z,28.40
2019-03-22T14:40:06.224Z,28.50
2019-03-22T14:42:34.744Z,27.80
2019-03-22T14:45:05.426Z,27.40
2019-03-22T14:47:33.880Z,27.70
2019-03-22T14:50:02.454Z,28.00
2019-03-22T14:52:31.608Z,28.00
2019-03-22T14:55:00.057Z,28.40
2019-03-22T14:57:28.520Z,29.60
2019-03-22T14:59:59.176Z,29.90
2019-03-22T15:02:27.329Z,29.90
2019-03-22T15:04:55.867Z,29.50
2019-03-22T15:07:24.402Z,29.90
2019-03-22T15:09:52.855Z,30.20
2019-03-22T15:12:21.315Z,30.50
2019-03-22T15:14:54.092Z,31.30
2019-03-22T15:17:36.170Z,30.80
2019-03-22T15:20:07.503Z,30.50
2019-03-22T15:22:43.803Z,30.20
2019-03-22T15:25:20.223Z,30.90
2019-03-22T15:27:56.343Z,31.10
2019-03-22T15:30:32.433Z,31.40
2019-03-22T15:33:19.118Z,31.90
2019-03-22T15:36:06.012Z,31.70
2019-03-22T15:38:45.318Z,32.10
2019-03-22T15:41:13.892Z,32.10
2019-03-22T15:43:42.339Z,32.10
2019-03-22T15:46:10.870Z,31.90
2019-03-22T15:48:39.319Z,32.30
2019-03-22T15:51:07.778Z,32.70
2019-03-22T15:53:36.239Z,33.20
2019-03-22T15:56:04.766Z,33.50
2019-03-22T15:58:33.226Z,33.60
2019-03-22T16:01:01.671Z,35.20
2019-03-22T16:03:30.131Z,36.10
2019-03-22T16:05:58.591Z,36.90
2019-03-22T16:08:27.044Z,38.40
2019-03-22T16:10:55.581Z,38.60
2019-03-22T16:13:24.040Z,39.70
2019-03-22T16:15:52.508Z,40.00
2019-03-22T16:18:20.947Z,40.50
2019-03-22T16:20:56.096Z,41.50
2019-03-22T16:23:19.575Z,42.60
2019-03-22T16:25:48.019Z,42.40
2019-03-22T16:28:16.483Z,43.50
2019-03-22T16:30:44.927Z,44.90
2019-03-22T16:33:13.392Z,45.80
2019-03-22T16:35:41.845Z,46.50
2019-03-22T16:38:10.374Z,47.10
2019-03-22T16:40:38.816Z,47.60
2019-03-22T16:43:07.348Z,47.50
2019-03-22T16:45:38.404Z,46.70
2019-03-22T16:48:07.196Z,47.30
2019-03-22T16:50:35.765Z,47.60
2019-03-22T16:53:04.510Z,48.10
2019-03-22T16:55:33.075Z,48.50
2019-03-22T16:58:01.574Z,48.40
2019-03-22T17:00:30.063Z,48.50
2019-03-22T17:02:58.523Z,48.80
2019-03-22T17:05:26.999Z,49.30
2019-03-22T17:07:55.541Z,49.50
2019-03-22T17:10:23.998Z,50.50
2019-03-22T17:12:52.463Z,51.10
2019-03-22T17:15:21.058Z,50.90
2019-03-22T17:17:49.582Z,50.30
2019-03-22T17:20:18.026Z,50.20
2019-03-22T17:22:46.479Z,51.10
2019-03-22T17:25:15.006Z,51.60
2019-03-22T17:27:43.465Z,52.00
2019-03-22T17:30:12.068Z,52.60
2019-03-22T17:32:40.592Z,52.50
2019-03-22T17:35:09.837Z,53.10
2019-03-22T17:37:38.394Z,53.60
2019-03-22T17:40:09.183Z,54.00
2019-03-22T17:42:37.718Z,54.30
2019-03-22T17:45:09.178Z,54.70
2019-03-22T17:47:37.643Z,54.90
2019-03-22T17:50:07.715Z,55.10
2019-03-22T17:52:36.253Z,55.20
2019-03-22T17:55:06.447Z,55.00
2019-03-22T17:57:34.906Z,55.70
2019-03-22T18:00:05.548Z,56.10
2019-03-22T18:02:34.150Z,56.30
2019-03-22T18:05:02.806Z,56.50
2019-03-22T18:07:31.343Z,57.40
2019-03-22T18:09:59.871Z,57.40
2019-03-22T18:12:28.674Z,57.50
2019-03-22T18:14:57.121Z,57.70
2019-03-22T18:17:25.575Z,57.00
2019-03-22T18:19:54.015Z,57.50
2019-03-22T18:22:22.484Z,58.00
2019-03-22T18:24:51.011Z,58.40
2019-03-22T18:27:19.470Z,58.70
2019-03-22T18:29:47.931Z,59.90
2019-03-22T18:32:16.380Z,60.40
2019-03-22T18:34:44.898Z,61.40
2019-03-22T18:37:13.368Z,62.20
2019-03-22T18:39:41.808Z,62.10
2019-03-22T18:42:10.264Z,61.90
2019-03-22T18:44:38.755Z,61.70
2019-03-22T18:47:07.210Z,60.60
2019-03-22T18:49:35.667Z,60.70
2019-03-22T18:52:04.274Z,60.90
2019-03-22T18:54:32.733Z,61.70
2019-03-22T18:57:01.171Z,61.30
2019-03-22T18:59:29.631Z,61.40
2019-03-22T19:01:58.090Z,62.00
2019-03-22T19:04:26.534Z,63.10
2019-03-22T19:06:54.990Z,63.50
2019-03-22T19:09:23.431Z,64.30
2019-03-22T19:11:51.942Z,65.00
2019-03-22T19:14:20.483Z,66.50
2019-03-22T19:16:49.001Z,68.30
2019-03-22T19:19:17.458Z,68.10
2019-03-22T19:21:45.901Z,68.50
2019-03-22T19:24:14.422Z,68.90
2019-03-22T19:26:45.402Z,69.20
2019-03-22T19:29:13.859Z,69.30
2019-03-22T19:31:42.299Z,71.10
2019-03-22T19:34:10.764Z,71.90
2019-03-22T19:36:39.207Z,73.10
2019-03-22T19:39:07.839Z,73.80
2019-03-22T19:41:36.292Z,74.50
2019-03-22T19:44:04.999Z,75.00
2019-03-22T19:46:33.596Z,75.00
2019-03-22T19:49:02.103Z,76.00
2019-03-22T19:51:30.553Z,77.30
2019-03-22T19:53:59.078Z,77.60
2019-03-22T19:56:27.519Z,78.70
2019-03-22T19:58:55.970Z,79.00
2019-03-22T20:01:24.499Z,78.90
2019-03-22T20:03:54.583Z,79.70
2019-03-22T20:06:23.039Z,79.40
2019-03-22T20:08:51.623Z,79.60
2019-03-22T20:11:20.328Z,79.60
2019-03-22T20:13:48.839Z,80.90
2019-03-22T20:16:17.304Z,83.50
2019-03-22T20:18:45.831Z,83.40
2019-03-22T20:21:14.275Z,83.20
2019-03-22T20:23:53.048Z,84.30
2019-03-22T20:26:12.987Z,85.50
2019-03-22T20:28:41.449Z,87.30
2019-03-22T20:31:09.888Z,88.90
2019-03-22T20:33:38.404Z,90.50
2019-03-22T20:36:06.860Z,92.20
2019-03-22T20:38:35.656Z,94.40
2019-03-22T20:41:04.097Z,95.90
2019-03-22T20:43:32.611Z,96.60
2019-03-22T20:46:01.144Z,97.00
2019-03-22T20:48:29.654Z,96.80
2019-03-22T20:50:58.111Z,97.40
2019-03-22T20:53:26.555Z,99.80
2019-03-22T20:55:55.055Z,99.90
2019-03-22T20:58:23.528Z,99.90
2019-03-22T21:00:51.968Z,99.90
2019-03-22T21:03:20.424Z,99.90
2019-03-22T21:05:48.941Z,99.90
2019-03-22T21:08:17.401Z,99.90
2019-03-22T21:10:45.915Z,99.90
2019-03-22T21:13:14.375Z,99.90
2019-03-22T21:15:42.814Z,99.90
2019-03-22T21:18:11.270Z,99.90
2019-03-22T21:20:39.728Z,99.90
2019-03-22T21:23:08.171Z,99.90
2019-03-22T21:25:36.622Z,99.90
2019-03-22T21:28:05.139Z,99.90
2019-03-22T21:30:33.672Z,99.90
2019-03-22T21:33:02.114Z,99.90
2019-03-22T21:35:37.387Z,99.90
2019-03-22T21:38:10.322Z,99.90
2019-03-22T21:40:31.045Z,99.90
2019-03-22T21:42:59.503Z,99.90
2019-03-22T21:45:27.957Z,99.90
2019-03-22T21:47:56.403Z,99.90
2019-03-22T21:50:24.859Z,99.90
2019-03-22T21:52:53.391Z,99.90
2019-03-22T21:55:21.847Z,99.90
2019-03-22T21:57:50.307Z,99.90
2019-03-22T22:00:18.882Z,99.90
2019-03-22T22:02:47.340Z,99.90
2019-03-22T22:05:15.782Z,99.90
2019-03-22T22:07:44.311Z,99.90
2019-03-22T22:10:12.839Z,99.90
2019-03-22T22:12:41.288Z,99.90
2019-03-22T22:15:11.373Z,99.90
2019-03-22T22:17:40.919Z,99.90
2019-03-22T22:20:10.210Z,99.90
2019-03-22T22:22:38.651Z,99.90
2019-03-22T22:25:08.454Z,99.90
2019-03-22T22:27:36.891Z,99.90
2019-03-22T22:30:07.391Z,99.90
2019-03-22T22:32:35.838Z,99.90
2019-03-22T22:35:06.819Z,99.90
2019-03-22T22:37:35.350Z,99.90
2019-03-22T22:40:06.575Z,99.90
2019-03-22T22:42:35.031Z,99.90
2019-03-22T22:45:04.220Z,99.90
2019-03-22T22:47:32.674Z,99.90
2019-03-22T22:50:01.134Z,99.90
2019-03-22T22:52:29.575Z,99.90
2019-03-22T22:54:58.034Z,99.90
2019-03-22T22:57:26.476Z,99.90
2019-03-22T22:59:55.018Z,99.90
2019-03-22T23:02:23.476Z,99.90
2019-03-22T23:04:51.917Z,99.90
2019-03-22T23:07:20.498Z,99.90
2019-03-22T23:09:49.204Z,99.90
2019-03-22T23:12:17.654Z,99.90
2019-03-22T23:14:46.178Z,99.90
2019-03-22T23:17:14.624Z,99.90
2019-03-22T23:19:43.079Z,99.90
2019-03-22T23:22:11.538Z,99.90
2019-03-22T23:24:39.986Z,99.90
2019-03-22T23:27:08.436Z,99.90
2019-03-22T23:29:36.875Z,99.90
2019-03-22T23:32:05.397Z,99.90
2019-03-22T23:34:33.855Z,99.90
2019-03-22T23:37:02.300Z,99.90
2019-03-22T23:39:30.744Z,99.90
2019-03-22T23:41:59.200Z,99.90
2019-03-22T23:44:27.654Z,99.90
2019-03-22T23:46:56.095Z,99.90
2019-03-22T23:49:24.536Z,99.90
2019-03-22T23:51:52.991Z,99.90
2019-03-22T23:54:21.435Z,99.90
2019-03-22T23:56:49.906Z,99.90
2019-03-22T23:59:18.343Z,99.90
